sensor_id;sensor_type;location;lat;lon;timestamp;temperature;humidity
5210;DHT22;2624;48.048;11.706;2023-02-23T00:02:09;7.20;99.90
5210;DHT22;2624;48.048;11.706;2023-02-23T00:07:10;7.00;99.90
5210;DHT22;2624;48.048;11.706;2023-02-23T00:12:14;7.30;99.90
5210;DHT22;2624;48.048;11.706;2023-02-23T00:17:16;7.00;99.90
5210;DHT22;2624;48.048;11.706;2023-02-23T00:22:18;7.00;99.90
5210;DHT22;2624;48.048;11.706;2023-02-23T00:27:21;7.00;99.90
5210;DHT22;2624;48.048;11.706;2023-02-23T00:32:23;7.30;99.90
5210;DHT22;2624;48.048;11.706;2023-02-23T00:37:25;7.30;99.90
5210;DHT22;2624;48.048;11.706;2023-02-23T00:42:28;7.00;99.90
5210;DHT22;2624;48.048;11.706;2023-02-23T00:47:32;7.30;99.90
5210;DHT22;2624;48.048;11.706;2023-02-23T00:52:35;7.10;99.90
5210;DHT22;2624;48.048;11.706;2023-02-23T00:57:38;6.60;99.90
5210;DHT22;2624;48.048;11.706;2023-02-23T01:02:40;6.70;99.90
5210;DHT22;2624;48.048;11.706;2023-02-23T01:07:42;6.70;99.90
5210;DHT22;2624;48.048;11.706;2023-02-23T01:12:49;6.40;99.90
5210;DHT22;2624;48.048;11.706;2023-02-23T01:17:51;6.40;99.90
5210;DHT22;2624;48.048;11.706;2023-02-23T01:22:52;6.70;99.90
5210;DHT22;2624;48.048;11.706;2023-02-23T01:27:55;7.00;99.90
5210;DHT22;2624;48.048;11.706;2023-02-23T01:32:57;6.90;99.90
5210;DHT22;2624;48.048;11.706;2023-02-23T01:38:00;6.90;99.90
5210;DHT22;2624;48.048;11.706;2023-02-23T01:43:13;6.70;99.90
5210;DHT22;2624;48.048;11.706;2023-02-23T01:48:18;6.60;99.90
5210;DHT22;2624;48.048;11.706;2023-02-23T01:53:21;6.60;99.90
5210;DHT22;2624;48.048;11.706;2023-02-23T01:58:27;6.70;99.90
5210;DHT22;2624;48.048;11.706;2023-02-23T02:03:34;6.80;99.90
5210;DHT22;2624;48.048;11.706;2023-02-23T02:08:37;6.70;99.90
5210;DHT22;2624;48.048;11.706;2023-02-23T02:13:45;6.60;99.90
5210;DHT22;2624;48.048;11.706;2023-02-23T02:19:05;6.70;99.90
5210;DHT22;2624;48.048;11.706;2023-02-23T02:24:48;6.80;99.90
5210;DHT22;2624;48.048;11.706;2023-02-23T02:40:57;6.60;99.90
5210;DHT22;2624;48.048;11.706;2023-02-23T02:46:10;6.70;99.90
5210;DHT22;2624;48.048;11.706;2023-02-23T02:51:19;6.70;99.90
5210;DHT22;2624;48.048;11.706;2023-02-23T02:56:25;6.60;99.90
5210;DHT22;2624;48.048;11.706;2023-02-23T03:01:29;6.60;99.90
5210;DHT22;2624;48.048;11.706;2023-02-23T03:06:53;6.60;99.90
5210;DHT22;2624;48.048;11.706;2023-02-23T03:12:25;6.60;99.90
5210;DHT22;2624;48.048;11.706;2023-02-23T03:17:46;6.60;99.90
5210;DHT22;2624;48.048;11.706;2023-02-23T03:23:13;6.60;99.90
5210;DHT22;2624;48.048;11.706;2023-02-23T03:28:43;6.40;99.90
5210;DHT22;2624;48.048;11.706;2023-02-23T03:34:09;6.40;99.90
5210;DHT22;2624;48.048;11.706;2023-02-23T03:39:34;6.60;99.90
5210;DHT22;2624;48.048;11.706;2023-02-23T03:44:57;6.40;99.90
5210;DHT22;2624;48.048;11.706;2023-02-23T03:50:22;6.50;99.90
5210;DHT22;2624;48.048;11.706;2023-02-23T03:55:47;6.50;99.90
5210;DHT22;2624;48.048;11.706;2023-02-23T04:01:11;6.50;99.90
5210;DHT22;2624;48.048;11.706;2023-02-23T04:06:35;6.60;99.90
5210;DHT22;2624;48.048;11.706;2023-02-23T04:12:01;6.60;99.90
5210;DHT22;2624;48.048;11.706;2023-02-23T04:17:26;6.60;99.90
5210;DHT22;2624;48.048;11.706;2023-02-23T04:22:33;6.50;99.90
5210;DHT22;2624;48.048;11.706;2023-02-23T04:27:35;6.50;99.90
5210;DHT22;2624;48.048;11.706;2023-02-23T04:32:38;6.60;99.90
5210;DHT22;2624;48.048;11.706;2023-02-23T04:37:40;6.60;99.90
5210;DHT22;2624;48.048;11.706;2023-02-23T04:42:42;6.50;99.90
5210;DHT22;2624;48.048;11.706;2023-02-23T04:47:45;6.50;99.90
5210;DHT22;2624;48.048;11.706;2023-02-23T04:52:47;6.40;99.90
5210;DHT22;2624;48.048;11.706;2023-02-23T04:57:49;6.40;99.90
5210;DHT22;2624;48.048;11.706;2023-02-23T05:02:52;6.40;99.90
5210;DHT22;2624;48.048;11.706;2023-02-23T05:07:54;6.40;99.90
5210;DHT22;2624;48.048;11.706;2023-02-23T05:12:56;6.40;99.90
5210;DHT22;2624;48.048;11.706;2023-02-23T05:17:59;6.40;99.90
5210;DHT22;2624;48.048;11.706;2023-02-23T05:23:02;6.50;99.90
5210;DHT22;2624;48.048;11.706;2023-02-23T05:28:04;6.60;99.90
5210;DHT22;2624;48.048;11.706;2023-02-23T05:33:07;6.50;99.90
5210;DHT22;2624;48.048;11.706;2023-02-23T05:38:09;6.50;99.90
5210;DHT22;2624;48.048;11.706;2023-02-23T05:43:11;6.50;99.90
5210;DHT22;2624;48.048;11.706;2023-02-23T05:48:14;6.50;99.90
5210;DHT22;2624;48.048;11.706;2023-02-23T05:53:15;6.40;99.90
5210;DHT22;2624;48.048;11.706;2023-02-23T05:58:17;6.50;99.90
5210;DHT22;2624;48.048;11.706;2023-02-23T06:03:20;6.60;99.90
5210;DHT22;2624;48.048;11.706;2023-02-23T06:08:23;6.60;99.90
5210;DHT22;2624;48.048;11.706;2023-02-23T06:13:25;6.50;99.90
5210;DHT22;2624;48.048;11.706;2023-02-23T06:18:29;6.40;99.90
5210;DHT22;2624;48.048;11.706;2023-02-23T06:23:32;6.20;99.90
5210;DHT22;2624;48.048;11.706;2023-02-23T06:28:33;6.00;99.90
5210;DHT22;2624;48.048;11.706;2023-02-23T06:33:37;6.00;99.90
5210;DHT22;2624;48.048;11.706;2023-02-23T06:38:39;5.90;99.90
5210;DHT22;2624;48.048;11.706;2023-02-23T06:43:40;6.10;99.90
5210;DHT22;2624;48.048;11.706;2023-02-23T06:48:43;6.20;99.90
5210;DHT22;2624;48.048;11.706;2023-02-23T06:53:46;6.20;99.90
5210;DHT22;2624;48.048;11.706;2023-02-23T06:58:47;6.10;99.90
5210;DHT22;2624;48.048;11.706;2023-02-23T07:03:51;6.10;99.90
5210;DHT22;2624;48.048;11.706;2023-02-23T07:08:52;6.10;99.90
5210;DHT22;2624;48.048;11.706;2023-02-23T07:13:57;6.10;99.90
5210;DHT22;2624;48.048;11.706;2023-02-23T07:19:00;6.20;99.90
5210;DHT22;2624;48.048;11.706;2023-02-23T07:24:03;6.20;99.90
5210;DHT22;2624;48.048;11.706;2023-02-23T07:29:05;6.30;99.90
5210;DHT22;2624;48.048;11.706;2023-02-23T07:34:08;6.30;99.90
5210;DHT22;2624;48.048;11.706;2023-02-23T07:39:10;6.30;99.90
5210;DHT22;2624;48.048;11.706;2023-02-23T07:44:12;6.40;99.90
5210;DHT22;2624;48.048;11.706;2023-02-23T07:49:15;6.40;99.90
5210;DHT22;2624;48.048;11.706;2023-02-23T07:54:17;6.40;99.90
5210;DHT22;2624;48.048;11.706;2023-02-23T07:59:19;6.50;99.90
5210;DHT22;2624;48.048;11.706;2023-02-23T08:04:22;6.50;99.90
5210;DHT22;2624;48.048;11.706;2023-02-23T08:09:23;6.50;99.90
5210;DHT22;2624;48.048;11.706;2023-02-23T08:14:25;6.60;99.90
5210;DHT22;2624;48.048;11.706;2023-02-23T08:19:28;6.60;99.90
5210;DHT22;2624;48.048;11.706;2023-02-23T08:24:31;6.60;99.90
5210;DHT22;2624;48.048;11.706;2023-02-23T08:29:32;6.70;99.90
5210;DHT22;2624;48.048;11.706;2023-02-23T08:34:38;6.80;99.90
5210;DHT22;2624;48.048;11.706;2023-02-23T08:39:40;6.80;99.90
5210;DHT22;2624;48.048;11.706;2023-02-23T08:44:41;6.90;99.90
5210;DHT22;2624;48.048;11.706;2023-02-23T08:49:45;6.90;99.90
5210;DHT22;2624;48.048;11.706;2023-02-23T08:54:47;6.90;99.90
5210;DHT22;2624;48.048;11.706;2023-02-23T08:59:48;7.00;99.90
5210;DHT22;2624;48.048;11.706;2023-02-23T09:04:52;7.20;99.90
5210;DHT22;2624;48.048;11.706;2023-02-23T09:09:54;7.10;99.90
5210;DHT22;2624;48.048;11.706;2023-02-23T09:14:56;7.10;99.90
5210;DHT22;2624;48.048;11.706;2023-02-23T09:19:59;7.20;99.90
5210;DHT22;2624;48.048;11.706;2023-02-23T09:25:01;7.20;99.90
5210;DHT22;2624;48.048;11.706;2023-02-23T09:30:05;7.20;99.90
5210;DHT22;2624;48.048;11.706;2023-02-23T09:35:08;7.20;99.90
5210;DHT22;2624;48.048;11.706;2023-02-23T09:40:14;7.20;99.90
5210;DHT22;2624;48.048;11.706;2023-02-23T09:45:25;7.30;99.90
5210;DHT22;2624;48.048;11.706;2023-02-23T09:50:30;7.30;99.90
5210;DHT22;2624;48.048;11.706;2023-02-23T09:55:35;7.20;99.90
5210;DHT22;2624;48.048;11.706;2023-02-23T10:00:43;7.20;99.90
5210;DHT22;2624;48.048;11.706;2023-02-23T10:05:52;7.30;99.90
5210;DHT22;2624;48.048;11.706;2023-02-23T10:11:01;7.40;99.90
5210;DHT22;2624;48.048;11.706;2023-02-23T10:16:12;7.40;99.90
5210;DHT22;2624;48.048;11.706;2023-02-23T10:21:21;7.40;99.90
5210;DHT22;2624;48.048;11.706;2023-02-23T10:26:27;7.40;99.90
5210;DHT22;2624;48.048;11.706;2023-02-23T10:31:36;7.60;99.90
5210;DHT22;2624;48.048;11.706;2023-02-23T10:36:44;7.60;99.90
5210;DHT22;2624;48.048;11.706;2023-02-23T10:41:48;7.70;99.90
5210;DHT22;2624;48.048;11.706;2023-02-23T10:46:53;7.70;99.90
5210;DHT22;2624;48.048;11.706;2023-02-23T10:51:57;7.80;99.90
5210;DHT22;2624;48.048;11.706;2023-02-23T10:57:03;7.90;99.90
5210;DHT22;2624;48.048;11.706;2023-02-23T11:02:20;7.80;99.90
5210;DHT22;2624;48.048;11.706;2023-02-23T11:07:26;7.80;99.90
5210;DHT22;2624;48.048;11.706;2023-02-23T11:12:36;7.90;99.90
5210;DHT22;2624;48.048;11.706;2023-02-23T11:17:42;7.90;99.90
5210;DHT22;2624;48.048;11.706;2023-02-23T11:22:45;8.00;99.90
5210;DHT22;2624;48.048;11.706;2023-02-23T11:27:48;7.90;99.90
5210;DHT22;2624;48.048;11.706;2023-02-23T11:32:54;8.10;99.90
5210;DHT22;2624;48.048;11.706;2023-02-23T11:37:58;8.30;99.90
5210;DHT22;2624;48.048;11.706;2023-02-23T11:43:06;8.30;99.90
5210;DHT22;2624;48.048;11.706;2023-02-23T11:48:19;8.80;99.90
5210;DHT22;2624;48.048;11.706;2023-02-23T11:53:27;8.40;99.90
5210;DHT22;2624;48.048;11.706;2023-02-23T11:58:36;8.40;99.90
5210;DHT22;2624;48.048;11.706;2023-02-23T12:03:44;8.50;99.90
5210;DHT22;2624;48.048;11.706;2023-02-23T12:08:50;8.60;99.90
5210;DHT22;2624;48.048;11.706;2023-02-23T12:13:59;8.60;99.90
5210;DHT22;2624;48.048;11.706;2023-02-23T12:19:10;8.50;99.90
5210;DHT22;2624;48.048;11.706;2023-02-23T12:24:22;8.50;99.90
5210;DHT22;2624;48.048;11.706;2023-02-23T12:29:30;8.70;99.90
5210;DHT22;2624;48.048;11.706;2023-02-23T12:34:38;8.90;99.90
5210;DHT22;2624;48.048;11.706;2023-02-23T12:39:47;9.10;99.90
5210;DHT22;2624;48.048;11.706;2023-02-23T12:44:52;9.00;99.90
5210;DHT22;2624;48.048;11.706;2023-02-23T12:49:58;9.20;99.90
5210;DHT22;2624;48.048;11.706;2023-02-23T12:55:12;9.80;99.90
5210;DHT22;2624;48.048;11.706;2023-02-23T13:00:37;9.70;99.90
5210;DHT22;2624;48.048;11.706;2023-02-23T13:05:46;10.00;99.90
5210;DHT22;2624;48.048;11.706;2023-02-23T13:10:56;10.00;99.90
5210;DHT22;2624;48.048;11.706;2023-02-23T13:16:10;9.60;99.90
5210;DHT22;2624;48.048;11.706;2023-02-23T13:21:17;9.60;99.90
5210;DHT22;2624;48.048;11.706;2023-02-23T13:26:28;10.30;99.90
5210;DHT22;2624;48.048;11.706;2023-02-23T13:31:36;9.90;99.90
5210;DHT22;2624;48.048;11.706;2023-02-23T13:36:39;9.60;99.90
5210;DHT22;2624;48.048;11.706;2023-02-23T13:41:50;9.70;99.90
5210;DHT22;2624;48.048;11.706;2023-02-23T13:47:01;9.90;99.90
5210;DHT22;2624;48.048;11.706;2023-02-23T13:52:26;9.80;99.90
5210;DHT22;2624;48.048;11.706;2023-02-23T13:57:31;9.80;99.90
5210;DHT22;2624;48.048;11.706;2023-02-23T14:02:37;10.10;99.90
5210;DHT22;2624;48.048;11.706;2023-02-23T14:07:42;10.00;99.90
5210;DHT22;2624;48.048;11.706;2023-02-23T14:13:05;10.20;99.90
5210;DHT22;2624;48.048;11.706;2023-02-23T14:18:31;9.70;99.90
5210;DHT22;2624;48.048;11.706;2023-02-23T14:23:35;9.60;99.90
5210;DHT22;2624;48.048;11.706;2023-02-23T14:29:26;9.60;99.90
5210;DHT22;2624;48.048;11.706;2023-02-23T14:34:47;9.60;99.90
5210;DHT22;2624;48.048;11.706;2023-02-23T14:39:50;9.70;99.90
5210;DHT22;2624;48.048;11.706;2023-02-23T14:44:54;9.70;99.90
5210;DHT22;2624;48.048;11.706;2023-02-23T14:49:58;9.70;99.90
5210;DHT22;2624;48.048;11.706;2023-02-23T14:55:13;9.80;99.90
5210;DHT22;2624;48.048;11.706;2023-02-23T15:00:21;9.70;99.90
5210;DHT22;2624;48.048;11.706;2023-02-23T15:05:25;9.70;99.90
5210;DHT22;2624;48.048;11.706;2023-02-23T15:10:31;9.70;99.90
5210;DHT22;2624;48.048;11.706;2023-02-23T15:15:34;9.90;99.90
5210;DHT22;2624;48.048;11.706;2023-02-23T15:20:40;9.80;99.90
5210;DHT22;2624;48.048;11.706;2023-02-23T15:25:43;9.80;99.90
5210;DHT22;2624;48.048;11.706;2023-02-23T15:30:50;9.80;99.90
5210;DHT22;2624;48.048;11.706;2023-02-23T15:35:55;9.80;99.90
5210;DHT22;2624;48.048;11.706;2023-02-23T15:41:02;9.80;99.90
5210;DHT22;2624;48.048;11.706;2023-02-23T15:46:07;9.90;99.90
5210;DHT22;2624;48.048;11.706;2023-02-23T15:51:20;9.80;99.90
5210;DHT22;2624;48.048;11.706;2023-02-23T15:56:24;9.80;99.90
5210;DHT22;2624;48.048;11.706;2023-02-23T16:01:30;9.70;99.90
5210;DHT22;2624;48.048;11.706;2023-02-23T16:06:34;9.80;99.90
5210;DHT22;2624;48.048;11.706;2023-02-23T16:11:36;9.80;99.90
5210;DHT22;2624;48.048;11.706;2023-02-23T16:16:41;9.80;99.90
5210;DHT22;2624;48.048;11.706;2023-02-23T16:21:48;9.80;99.90
5210;DHT22;2624;48.048;11.706;2023-02-23T16:26:54;9.70;99.90
5210;DHT22;2624;48.048;11.706;2023-02-23T16:32:01;9.70;99.90
5210;DHT22;2624;48.048;11.706;2023-02-23T16:37:13;9.70;99.90
5210;DHT22;2624;48.048;11.706;2023-02-23T16:42:22;9.70;99.90
5210;DHT22;2624;48.048;11.706;2023-02-23T16:47:32;9.70;99.90
5210;DHT22;2624;48.048;11.706;2023-02-23T16:52:35;9.70;99.90
5210;DHT22;2624;48.048;11.706;2023-02-23T16:57:39;9.70;99.90
5210;DHT22;2624;48.048;11.706;2023-02-23T17:02:42;9.70;99.90
5210;DHT22;2624;48.048;11.706;2023-02-23T17:07:44;9.70;99.90
5210;DHT22;2624;48.048;11.706;2023-02-23T17:12:47;9.60;99.90
5210;DHT22;2624;48.048;11.706;2023-02-23T17:17:50;9.60;99.90
5210;DHT22;2624;48.048;11.706;2023-02-23T17:22:57;9.50;99.90
5210;DHT22;2624;48.048;11.706;2023-02-23T17:27:59;9.60;99.90
5210;DHT22;2624;48.048;11.706;2023-02-23T17:33:03;9.50;99.90
5210;DHT22;2624;48.048;11.706;2023-02-23T17:38:05;9.50;99.90
5210;DHT22;2624;48.048;11.706;2023-02-23T17:43:07;9.50;99.90
5210;DHT22;2624;48.048;11.706;2023-02-23T17:48:10;9.50;99.90
5210;DHT22;2624;48.048;11.706;2023-02-23T17:53:12;9.40;99.90
5210;DHT22;2624;48.048;11.706;2023-02-23T17:58:13;9.30;99.90
5210;DHT22;2624;48.048;11.706;2023-02-23T18:03:16;9.30;99.90
5210;DHT22;2624;48.048;11.706;2023-02-23T18:08:18;9.10;99.90
5210;DHT22;2624;48.048;11.706;2023-02-23T18:13:20;9.00;99.90
5210;DHT22;2624;48.048;11.706;2023-02-23T18:18:23;8.80;99.90
5210;DHT22;2624;48.048;11.706;2023-02-23T18:23:26;8.80;99.90
5210;DHT22;2624;48.048;11.706;2023-02-23T18:28:32;8.70;99.90
5210;DHT22;2624;48.048;11.706;2023-02-23T18:33:35;8.60;99.90
5210;DHT22;2624;48.048;11.706;2023-02-23T18:38:37;8.40;99.90
5210;DHT22;2624;48.048;11.706;2023-02-23T18:43:39;8.40;99.90
5210;DHT22;2624;48.048;11.706;2023-02-23T18:48:42;8.40;99.90
5210;DHT22;2624;48.048;11.706;2023-02-23T18:53:44;8.30;99.90
5210;DHT22;2624;48.048;11.706;2023-02-23T18:58:46;8.60;99.90
5210;DHT22;2624;48.048;11.706;2023-02-23T19:03:50;8.40;99.90
5210;DHT22;2624;48.048;11.706;2023-02-23T19:08:53;8.30;99.90
5210;DHT22;2624;48.048;11.706;2023-02-23T19:13:56;8.60;99.90
5210;DHT22;2624;48.048;11.706;2023-02-23T19:19:00;8.60;99.90
5210;DHT22;2624;48.048;11.706;2023-02-23T19:24:03;8.10;99.90
5210;DHT22;2624;48.048;11.706;2023-02-23T19:29:05;8.10;99.90
5210;DHT22;2624;48.048;11.706;2023-02-23T19:34:09;7.90;99.90
5210;DHT22;2624;48.048;11.706;2023-02-23T19:39:11;7.70;99.90
5210;DHT22;2624;48.048;11.706;2023-02-23T19:44:15;7.60;99.90
5210;DHT22;2624;48.048;11.706;2023-02-23T19:49:18;7.60;99.90
5210;DHT22;2624;48.048;11.706;2023-02-23T19:54:19;7.80;99.90
5210;DHT22;2624;48.048;11.706;2023-02-23T19:59:21;8.00;99.90
5210;DHT22;2624;48.048;11.706;2023-02-23T20:04:24;7.70;99.90
5210;DHT22;2624;48.048;11.706;2023-02-23T20:09:27;7.40;99.90
5210;DHT22;2624;48.048;11.706;2023-02-23T20:14:29;7.50;99.90
5210;DHT22;2624;48.048;11.706;2023-02-23T20:19:33;7.60;99.90
5210;DHT22;2624;48.048;11.706;2023-02-23T20:24:35;7.20;99.90
5210;DHT22;2624;48.048;11.706;2023-02-23T20:29:37;7.40;99.90
5210;DHT22;2624;48.048;11.706;2023-02-23T20:34:40;7.10;99.90
5210;DHT22;2624;48.048;11.706;2023-02-23T20:39:45;6.90;99.90
5210;DHT22;2624;48.048;11.706;2023-02-23T20:44:47;6.90;99.90
5210;DHT22;2624;48.048;11.706;2023-02-23T20:49:50;6.80;99.90
5210;DHT22;2624;48.048;11.706;2023-02-23T20:54:51;6.80;99.90
5210;DHT22;2624;48.048;11.706;2023-02-23T20:59:53;7.20;99.90
5210;DHT22;2624;48.048;11.706;2023-02-23T21:04:56;7.60;99.90
5210;DHT22;2624;48.048;11.706;2023-02-23T21:09:58;7.30;99.90
5210;DHT22;2624;48.048;11.706;2023-02-23T21:15:00;6.80;99.90
5210;DHT22;2624;48.048;11.706;2023-02-23T21:20:12;7.00;99.90
5210;DHT22;2624;48.048;11.706;2023-02-23T21:25:16;7.10;99.90
5210;DHT22;2624;48.048;11.706;2023-02-23T21:30:20;6.70;99.90
5210;DHT22;2624;48.048;11.706;2023-02-23T21:35:24;6.60;99.90
5210;DHT22;2624;48.048;11.706;2023-02-23T21:40:25;6.80;99.90
5210;DHT22;2624;48.048;11.706;2023-02-23T21:45:27;6.70;99.90
5210;DHT22;2624;48.048;11.706;2023-02-23T21:50:30;6.90;99.90
5210;DHT22;2624;48.048;11.706;2023-02-23T21:55:32;7.10;99.90
5210;DHT22;2624;48.048;11.706;2023-02-23T22:00:35;7.20;99.90
5210;DHT22;2624;48.048;11.706;2023-02-23T22:05:38;7.10;99.90
5210;DHT22;2624;48.048;11.706;2023-02-23T22:10:40;6.90;99.90
5210;DHT22;2624;48.048;11.706;2023-02-23T22:15:41;6.90;99.90
5210;DHT22;2624;48.048;11.706;2023-02-23T22:20:44;6.30;99.90
5210;DHT22;2624;48.048;11.706;2023-02-23T22:25:52;6.00;99.90
5210;DHT22;2624;48.048;11.706;2023-02-23T22:30:54;6.00;99.90
5210;DHT22;2624;48.048;11.706;2023-02-23T22:35:59;6.20;99.90
5210;DHT22;2624;48.048;11.706;2023-02-23T22:41:02;6.40;99.90
5210;DHT22;2624;48.048;11.706;2023-02-23T22:46:06;6.10;99.90
5210;DHT22;2624;48.048;11.706;2023-02-23T22:51:10;6.10;99.90
5210;DHT22;2624;48.048;11.706;2023-02-23T22:56:12;6.30;99.90
5210;DHT22;2624;48.048;11.706;2023-02-23T23:01:14;6.30;99.90
5210;DHT22;2624;48.048;11.706;2023-02-23T23:06:19;6.30;99.90
5210;DHT22;2624;48.048;11.706;2023-02-23T23:11:23;6.20;99.90
5210;DHT22;2624;48.048;11.706;2023-02-23T23:16:26;6.30;99.90
5210;DHT22;2624;48.048;11.706;2023-02-23T23:21:33;6.50;99.90
5210;DHT22;2624;48.048;11.706;2023-02-23T23:26:36;6.60;99.90
5210;DHT22;2624;48.048;11.706;2023-02-23T23:31:40;5.80;99.90
5210;DHT22;2624;48.048;11.706;2023-02-23T23:36:45;5.60;99.90
5210;DHT22;2624;48.048;11.706;2023-02-23T23:41:49;5.40;99.90
5210;DHT22;2624;48.048;11.706;2023-02-23T23:46:51;5.40;99.90
5210;DHT22;2624;48.048;11.706;2023-02-23T23:51:54;5.40;99.90
5210;DHT22;2624;48.048;11.706;2023-02-23T23:56:56;5.60;99.90
